Observation data for Spur on 01/12/2018      Previous  Date  Next       Current Mesonet Observations  Soil Data  Daily Summary Page  Observations in Plain Language
KSP1 120605Z 31003KT M05/M11 A3028 RMK A01 T10451111  RH  061%=      5-min Rain = 0
KSP1 120610Z 26002KT M05/M12 A3028 RMK A01 T10511117  RH  061%=      5-min Rain = 0
KSP1 120615Z 27003KT M06/M12 A3028 RMK A01 T10581118  RH  064%=      5-min Rain = 0
KSP1 120620Z 28003KT M06/M11 A3028 RMK A01 T10581112  RH  066%=      5-min Rain = 0
KSP1 120625Z 29003KT M06/M11 A3029 RMK A01 T10561112  RH  065%=      5-min Rain = 0
KSP1 120630Z 28002KT M06/M11 A3029 RMK A01 T10561114  RH  065%=      5-min Rain = 0
KSP1 120635Z 30003KT M06/M11 A3029 RMK A01 T10581114  RH  065%=      5-min Rain = 0
KSP1 120640Z 29002KT M06/M11 A3028 RMK A01 T10581114  RH  066%=      5-min Rain = 0
KSP1 120645Z 25002KT M06/M12 A3029 RMK A01 T10591115  RH  065%=      5-min Rain = 0
KSP1 120650Z 24002KT M06/M11 A3028 RMK A01 T10591114  RH  066%=      5-min Rain = 0
KSP1 120655Z 26002KT M06/M11 A3029 RMK A01 T10591114  RH  066%=      5-min Rain = 0
KSP1 120700Z 28001KT M06/M11 A3028 RMK A01 T10591113  RH  066%=      5-min Rain = 0
KSP1 120705Z 35002KT M06/M11 A3028 RMK A01 T10591112  RH  067%=      5-min Rain = 0
KSP1 120710Z 00003KT M06/M12 A3028 RMK A01 T10581115  RH  065%=      5-min Rain = 0
KSP1 120715Z 35003KT M06/M12 A3028 RMK A01 T10601115  RH  066%=      5-min Rain = 0
KSP1 120720Z 36003KT M06/M11 A3028 RMK A01 T10581113  RH  066%=      5-min Rain = 0
KSP1 120725Z 01003KT M06/M11 A3027 RMK A01 T10561114  RH  065%=      5-min Rain = 0
KSP1 120730Z 35004KT M06/M12 A3027 RMK A01 T10581115  RH  065%=      5-min Rain = 0
KSP1 120735Z 36005KT M06/M12 A3027 RMK A01 T10601116  RH  065%=      5-min Rain = 0
KSP1 120740Z 01004KT M06/M11 A3026 RMK A01 T10591112  RH  067%=      5-min Rain = 0
KSP1 120745Z 00003KT M06/M11 A3026 RMK A01 T10581111  RH  067%=      5-min Rain = 0
KSP1 120750Z 36003KT M06/M11 A3027 RMK A01 T10591113  RH  066%=      5-min Rain = 0
KSP1 120755Z 03003KT M06/M11 A3027 RMK A01 T10611113  RH  067%=      5-min Rain = 0
KSP1 120800Z 02003KT M06/M11 A3027 RMK A01 T10601112  RH  068%=      5-min Rain = 0
KSP1 120805Z 02001KT M06/M12 A3027 RMK A01 T10621115  RH  067%=      5-min Rain = 0
KSP1 120810Z 29000KT M06/M12 A3027 RMK A01 T10631115  RH  067%=      5-min Rain = 0
KSP1 120815Z 20003KT M07/M12 A3027 RMK A01 T10681122  RH  066%=      5-min Rain = 0
KSP1 120820Z 23004KT M08/M13 A3028 RMK A01 T10781125  RH  070%=      5-min Rain = 0
KSP1 120825Z 24003KT M08/M12 A3028 RMK A01 T10761119  RH  072%=      5-min Rain = 0
KSP1 120830Z 23003KT M07/M12 A3028 RMK A01 T10721116  RH  072%=      5-min Rain = 0
KSP1 120835Z 22003KT M07/M12 A3028 RMK A01 T10711117  RH  071%=      5-min Rain = 0
KSP1 120840Z 26002KT M07/M12 A3028 RMK A01 T10701116  RH  071%=      5-min Rain = 0
KSP1 120845Z 26001KT M07/M12 A3028 RMK A01 T10681115  RH  070%=      5-min Rain = 0
KSP1 120850Z 22002KT M07/M12 A3028 RMK A01 T10681116  RH  070%=      5-min Rain = 0
KSP1 120855Z 22002KT M07/M12 A3028 RMK A01 T10681116  RH  070%=      5-min Rain = 0
KSP1 120900Z 22000KT M07/M12 A3028 RMK A01 T10671116  RH  069%=      5-min Rain = 0
KSP1 120905Z 24001KT M07/M12 A3028 RMK A01 T10661117  RH  068%=      5-min Rain = 0
KSP1 120910Z 24000KT M07/M12 A3028 RMK A01 T10671118  RH  068%=      5-min Rain = 0
KSP1 120915Z 24000KT M07/M12 A3028 RMK A01 T10711122  RH  068%=      5-min Rain = 0
KSP1 120920Z 24001KT M08/M12 A3028 RMK A01 T10761124  RH  069%=      5-min Rain = 0
KSP1 120925Z 29001KT M08/M12 A3029 RMK A01 T10761121  RH  071%=      5-min Rain = 0
KSP1 120930Z 33003KT M07/M12 A3029 RMK A01 T10741120  RH  071%=      5-min Rain = 0
KSP1 120935Z 34002KT M08/M13 A3028 RMK A01 T10781125  RH  070%=      5-min Rain = 0
KSP1 120940Z 00001KT M08/M12 A3028 RMK A01 T10791124  RH  071%=      5-min Rain = 0
KSP1 120945Z 35002KT M08/M12 A3028 RMK A01 T10771120  RH  072%=      5-min Rain = 0
KSP1 120950Z 32002KT M08/M12 A3028 RMK A01 T10761120  RH  072%=      5-min Rain = 0
KSP1 120955Z 31002KT M07/M12 A3028 RMK A01 T10741119  RH  071%=      5-min Rain = 0
KSP1 121000Z 33002KT M08/M12 A3027 RMK A01 T10751121  RH  071%=      5-min Rain = 0
KSP1 121005Z 35001KT M08/M12 A3027 RMK A01 T10761121  RH  071%=      5-min Rain = 0
KSP1 121010Z 00000KT M08/M12 A3027 RMK A01 T10771123  RH  070%=      5-min Rain = 0
KSP1 121015Z 33001KT M08/M13 A3026 RMK A01 T10811127  RH  070%=      5-min Rain = 0
KSP1 121020Z 33002KT M08/M13 A3027 RMK A01 T10821126  RH  071%=      5-min Rain = 0
KSP1 121025Z 35002KT M08/M12 A3027 RMK A01 T10821124  RH  073%=      5-min Rain = 0
KSP1 121030Z 34003KT M08/M13 A3027 RMK A01 T10821125  RH  073%=      5-min Rain = 0
KSP1 121035Z 33005KT M09/M13 A3027 RMK A01 T10851128  RH  073%=      5-min Rain = 0
KSP1 121040Z 32004KT M09/M13 A3027 RMK A01 T10881127  RH  074%=      5-min Rain = 0
KSP1 121045Z 31004KT M09/M12 A3028 RMK A01 T10851124  RH  075%=      5-min Rain = 0
KSP1 121050Z 30004KT M08/M12 A3027 RMK A01 T10831121  RH  075%=      5-min Rain = 0
KSP1 121055Z 30002KT M08/M12 A3027 RMK A01 T10831124  RH  074%=      5-min Rain = 0
KSP1 121100Z 31003KT M09/M13 A3027 RMK A01 T10861126  RH  074%=      5-min Rain = 0
KSP1 121105Z 31004KT M09/M13 A3027 RMK A01 T10871126  RH  075%=      5-min Rain = 0
KSP1 121110Z 32004KT M09/M13 A3028 RMK A01 T10891128  RH  075%=      5-min Rain = 0
KSP1 121115Z 32004KT M09/M13 A3028 RMK A01 T10891125  RH  076%=      5-min Rain = 0
KSP1 121120Z 32004KT M09/M13 A3028 RMK A01 T10881125  RH  076%=      5-min Rain = 0
KSP1 121125Z 31003KT M09/M12 A3028 RMK A01 T10881124  RH  076%=      5-min Rain = 0
KSP1 121130Z 32003KT M09/M12 A3028 RMK A01 T10881124  RH  076%=      5-min Rain = 0
KSP1 121135Z 31004KT M09/M12 A3028 RMK A01 T10881124  RH  076%=      5-min Rain = 0
KSP1 121140Z 32004KT M09/M13 A3028 RMK A01 T10891125  RH  076%=      5-min Rain = 0
KSP1 121145Z 32004KT M09/M13 A3028 RMK A01 T10901126  RH  076%=      5-min Rain = 0
KSP1 121150Z 33005KT M09/M13 A3028 RMK A01 T10911127  RH  076%=      5-min Rain = 0
KSP1 121155Z 33005KT M09/M13 A3028 RMK A01 T10911126  RH  077%=      5-min Rain = 0
KSP1 121200Z 33005KT M09/M13 A3028 RMK A01 T10911125  RH  077%=      5-min Rain = 0
KSP1 121205Z 35004KT M09/M13 A3028 RMK A01 T10911126  RH  077%=      5-min Rain = 0
KSP1 121210Z 36003KT M09/M12 A3028 RMK A01 T10891123  RH  077%=      5-min Rain = 0
KSP1 121215Z 36002KT M09/M13 A3028 RMK A01 T10891125  RH  076%=      5-min Rain = 0
KSP1 121220Z 00003KT M09/M13 A3028 RMK A01 T10901126  RH  076%=      5-min Rain = 0
KSP1 121225Z 00002KT M09/M13 A3028 RMK A01 T10911127  RH  076%=      5-min Rain = 0
KSP1 121230Z 00002KT M09/M13 A3028 RMK A01 T10931130  RH  076%=      5-min Rain = 0
KSP1 121235Z 33003KT M09/M13 A3028 RMK A01 T10931130  RH  076%=      5-min Rain = 0
KSP1 121240Z 32002KT M10/M13 A3028 RMK A01 T10951131  RH  076%=      5-min Rain = 0
KSP1 121245Z 31003KT M10/M13 A3028 RMK A01 T10951130  RH  077%=      5-min Rain = 0
KSP1 121250Z 31004KT M10/M13 A3028 RMK A01 T10961130  RH  077%=      5-min Rain = 0
KSP1 121255Z 31004KT M10/M13 A3028 RMK A01 T10971131  RH  078%=      5-min Rain = 0
KSP1 121300Z 31002KT M10/M13 A3028 RMK A01 T10981132  RH  077%=      5-min Rain = 0
KSP1 121305Z 30002KT M10/M13 A3028 RMK A01 T10991131  RH  078%=      5-min Rain = 0
KSP1 121310Z 33002KT M10/M13 A3028 RMK A01 T10981130  RH  079%=      5-min Rain = 0
KSP1 121315Z 34003KT M10/M13 A3028 RMK A01 T10961127  RH  079%=      5-min Rain = 0
KSP1 121320Z 34003KT M10/M13 A3028 RMK A01 T10951127  RH  079%=      5-min Rain = 0
KSP1 121325Z 33005KT M10/M13 A3028 RMK A01 T10951127  RH  079%=      5-min Rain = 0
KSP1 121330Z 33005KT M10/M13 A3028 RMK A01 T10981130  RH  078%=      5-min Rain = 0
KSP1 121335Z 33005KT M10/M13 A3028 RMK A01 T10971128  RH  080%=      5-min Rain = 0
KSP1 121340Z 32005KT M10/M13 A3028 RMK A01 T10981129  RH  079%=      5-min Rain = 0
KSP1 121345Z 32005KT M10/M13 A3028 RMK A01 T10971128  RH  079%=      5-min Rain = 0
KSP1 121350Z 33006KT M10/M13 A3029 RMK A01 T10981129  RH  079%=      5-min Rain = 0
KSP1 121355Z 34005KT M10/M13 A3029 RMK A01 T10991130  RH  079%=      5-min Rain = 0
KSP1 121400Z 34004KT M10/M13 A3029 RMK A01 T11001131  RH  079%=      5-min Rain = 0
KSP1 121405Z 34005KT M10/M13 A3029 RMK A01 T10991128  RH  080%=      5-min Rain = 0
KSP1 121410Z 34005KT M10/M13 A3029 RMK A01 T10951125  RH  080%=      5-min Rain = 0
KSP1 121415Z 33003KT M09/M12 A3029 RMK A01 T10921122  RH  080%=      5-min Rain = 0
KSP1 121420Z 33002KT M09/M12 A3029 RMK A01 T10871117  RH  080%=      5-min Rain = 0
KSP1 121425Z 32002KT M08/M11 A3029 RMK A01 T10811114  RH  078%=      5-min Rain = 0
KSP1 121430Z 33003KT M08/M12 A303 RMK A01 T10791115  RH  076%=      5-min Rain = 0
KSP1 121435Z 34003KT M08/M11 A303 RMK A01 T10751113  RH  075%=      5-min Rain = 0
KSP1 121440Z 33003KT M07/M11 A303 RMK A01 T10711111  RH  074%=      5-min Rain = 0
KSP1 121445Z 33003KT M07/M11 A303 RMK A01 T10661109  RH  072%=      5-min Rain = 0
KSP1 121450Z 34002KT M06/M11 A303 RMK A01 T10611107  RH  071%=      5-min Rain = 0
KSP1 121455Z 35001KT M06/M10 A303 RMK A01 T10551103  RH  070%=      5-min Rain = 0
KSP1 121500Z 34000KT M05/M10 A303 RMK A01 T10481099  RH  068%=      5-min Rain = 0
KSP1 121505Z 00000KT M04/M10 A303 RMK A01 T10401096  RH  066%=      5-min Rain = 0
KSP1 121510Z 06000KT M03/M10 A303 RMK A01 T10331095  RH  063%=      5-min Rain = 0
KSP1 121515Z 08000KT M03/M10 A303 RMK A01 T10281095  RH  061%=      5-min Rain = 0
KSP1 121520Z 29000KT M02/M10 A303 RMK A01 T10241095  RH  059%=      5-min Rain = 0
KSP1 121525Z 23001KT M02/M10 A303 RMK A01 T10201095  RH  057%=      5-min Rain = 0
KSP1 121530Z 19001KT M02/M10 A3031 RMK A01 T10171095  RH  056%=      5-min Rain = 0
KSP1 121535Z 11002KT M02/M10 A303 RMK A01 T10151096  RH  055%=      5-min Rain = 0
KSP1 121540Z 16002KT M02/M10 A3031 RMK A01 T10161099  RH  054%=      5-min Rain = 0
KSP1 121545Z 14002KT M02/M10 A3031 RMK A01 T10161100  RH  053%=      5-min Rain = 0
KSP1 121550Z 16002KT M01/M10 A3031 RMK A01 T10141101  RH  052%=      5-min Rain = 0
KSP1 121555Z 14002KT M01/M10 A3031 RMK A01 T10121103  RH  051%=      5-min Rain = 0
KSP1 121600Z 15002KT M01/M10 A3031 RMK A01 T10091101  RH  051%=      5-min Rain = 0
KSP1 121605Z 17002KT M01/M10 A3031 RMK A01 T10061101  RH  049%=      5-min Rain = 0
KSP1 121610Z 15003KT M01/M10 A3031 RMK A01 T10051103  RH  048%=      5-min Rain = 0
KSP1 121615Z 19003KT M00/M10 A3031 RMK A01 T10041102  RH  048%=      5-min Rain = 0
KSP1 121620Z 20002KT M00/M10 A303 RMK A01 T10021101  RH  048%=      5-min Rain = 0
KSP1 121625Z 13002KT 00/M10 A303 RMK A01 T00011101  RH  047%=      5-min Rain = 0
KSP1 121630Z 13002KT 00/M10 A303 RMK A01 T00031100  RH  046%=      5-min Rain = 0
KSP1 121635Z 17002KT 01/M10 A303 RMK A01 T00051099  RH  046%=      5-min Rain = 0
KSP1 121640Z 15003KT 01/M10 A303 RMK A01 T00081099  RH  045%=      5-min Rain = 0
KSP1 121645Z 12003KT 01/M10 A303 RMK A01 T00091099  RH  045%=      5-min Rain = 0
KSP1 121650Z 16004KT 01/M10 A3029 RMK A01 T00101103  RH  043%=      5-min Rain = 0
KSP1 121655Z 17003KT 01/M10 A3029 RMK A01 T00121102  RH  043%=      5-min Rain = 0
KSP1 121700Z 17005KT 02/M10 A3029 RMK A01 T00151102  RH  042%=      5-min Rain = 0
KSP1 121705Z 18004KT 02/M10 A3028 RMK A01 T00151103  RH  042%=      5-min Rain = 0
KSP1 121710Z 14004KT 02/M10 A3028 RMK A01 T00171102  RH  042%=      5-min Rain = 0
KSP1 121715Z 15005KT 02/M10 A3028 RMK A01 T00221102  RH  040%=      5-min Rain = 0
KSP1 121720Z 15005KT 02/M11 A3028 RMK A01 T00241105  RH  039%=      5-min Rain = 0
KSP1 121725Z 17003KT 02/M10 A3028 RMK A01 T00241103  RH  039%=      5-min Rain = 0
KSP1 121730Z 18004KT 03/M10 A3028 RMK A01 T00271103  RH  038%=      5-min Rain = 0
KSP1 121735Z 14001KT 03/M10 A3028 RMK A01 T00311101  RH  038%=      5-min Rain = 0
KSP1 121740Z 20003KT 04/M10 A3028 RMK A01 T00371101  RH  036%=      5-min Rain = 0
KSP1 121745Z 18003KT 04/M11 A3027 RMK A01 T00381105  RH  035%=      5-min Rain = 0
KSP1 121750Z 14003KT 04/M10 A3027 RMK A01 T00371104  RH  035%=      5-min Rain = 0
KSP1 121755Z 16002KT 04/M11 A3027 RMK A01 T00381106  RH  035%=      5-min Rain = 0
KSP1 121800Z 13003KT 04/M11 A3026 RMK A01 T00401105  RH  034%=      5-min Rain = 0
KSP1 121805Z 12004KT 04/M11 A3026 RMK A01 T00401107  RH  034%=      5-min Rain = 0
KSP1 121810Z 14004KT 04/M11 A3025 RMK A01 T00421107  RH  033%=      5-min Rain = 0
KSP1 121815Z 15006KT 04/M11 A3025 RMK A01 T00431108  RH  033%=      5-min Rain = 0
KSP1 121820Z 13005KT 05/M11 A3024 RMK A01 T00461107  RH  032%=      5-min Rain = 0
KSP1 121825Z 13006KT 05/M11 A3024 RMK A01 T00451109  RH  032%=      5-min Rain = 0
KSP1 121830Z 16005KT 05/M11 A3023 RMK A01 T00471108  RH  032%=      5-min Rain = 0
KSP1 121835Z 16006KT 05/M11 A3022 RMK A01 T00501108  RH  031%=      5-min Rain = 0
KSP1 121840Z 18007KT 05/M11 A3022 RMK A01 T00501110  RH  031%=      5-min Rain = 0
KSP1 121845Z 15007KT 05/M11 A3022 RMK A01 T00531109  RH  030%=      5-min Rain = 0
KSP1 121850Z 14006G11KT 05/M11 A3022 RMK A01 T00531109  RH  030%=      5-min Rain = 0
KSP1 121855Z 14006KT 05/M11 A3021 RMK A01 T00531112  RH  030%=      5-min Rain = 0
KSP1 121900Z 15007KT 05/M11 A3021 RMK A01 T00541112  RH  029%=      5-min Rain = 0
KSP1 121905Z 15007G12KT 06/M11 A3021 RMK A01 T00581114  RH  028%=      5-min Rain = 0
KSP1 121910Z 16008KT 06/M11 A302 RMK A01 T00581114  RH  028%=      5-min Rain = 0
KSP1 121915Z 17008KT 06/M12 A302 RMK A01 T00601115  RH  028%=      5-min Rain = 0
KSP1 121920Z 18009KT 06/M12 A3019 RMK A01 T00621116  RH  027%=      5-min Rain = 0
KSP1 121925Z 17007KT 06/M12 A3019 RMK A01 T00641118  RH  026%=      5-min Rain = 0
KSP1 121930Z 17009G14KT 06/M12 A3018 RMK A01 T00631118  RH  026%=      5-min Rain = 0
KSP1 121935Z 17009KT 07/M12 A3018 RMK A01 T00671117  RH  026%=      5-min Rain = 0
KSP1 121940Z 15009KT 07/M12 A3018 RMK A01 T00661121  RH  025%=      5-min Rain = 0
KSP1 121945Z 15009G15KT 07/M12 A3017 RMK A01 T00661121  RH  025%=      5-min Rain = 0
KSP1 121950Z 15009G15KT 07/M12 A3017 RMK A01 T00671122  RH  025%=      5-min Rain = 0
KSP1 121955Z 16008KT 07/M12 A3017 RMK A01 T00671122  RH  025%=      5-min Rain = 0
KSP1 122000Z 14007KT 07/M12 A3017 RMK A01 T00681120  RH  025%=      5-min Rain = 0
KSP1 122005Z 16008G13KT 07/M12 A3017 RMK A01 T00721121  RH  024%=      5-min Rain = 0
KSP1 122010Z 14011KT 08/M13 A3017 RMK A01 T00751125  RH  023%=      5-min Rain = 0
KSP1 122015Z 14009G16KT 07/M13 A3017 RMK A01 T00741125  RH  023%=      5-min Rain = 0
KSP1 122020Z 14008G13KT 07/M13 A3016 RMK A01 T00741125  RH  023%=      5-min Rain = 0
KSP1 122025Z 16010KT 07/M13 A3017 RMK A01 T00741126  RH  023%=      5-min Rain = 0
KSP1 122030Z 15008KT 08/M13 A3017 RMK A01 T00751125  RH  023%=      5-min Rain = 0
KSP1 122035Z 16009KT 08/M13 A3018 RMK A01 T00751126  RH  023%=      5-min Rain = 0
KSP1 122040Z 16006KT 07/M13 A3018 RMK A01 T00741127  RH  023%=      5-min Rain = 0
KSP1 122045Z 13009KT 08/M13 A3017 RMK A01 T00751126  RH  023%=      5-min Rain = 0
KSP1 122050Z 14007G12KT 08/M13 A3017 RMK A01 T00751126  RH  023%=      5-min Rain = 0
KSP1 122055Z 16010KT 08/M13 A3017 RMK A01 T00771128  RH  022%=      5-min Rain = 0
KSP1 122100Z 16009KT 08/M13 A3017 RMK A01 T00761128  RH  022%=      5-min Rain = 0
KSP1 122105Z 15009KT 08/M13 A3017 RMK A01 T00781128  RH  022%=      5-min Rain = 0
KSP1 122110Z 16007G14KT 08/M13 A3017 RMK A01 T00761129  RH  022%=      5-min Rain = 0
KSP1 122115Z 15009KT 08/M13 A3017 RMK A01 T00781130  RH  022%=      5-min Rain = 0
KSP1 122120Z 15011KT 08/M13 A3017 RMK A01 T00801131  RH  021%=      5-min Rain = 0
KSP1 122125Z 15009KT 08/M13 A3017 RMK A01 T00811132  RH  021%=      5-min Rain = 0
KSP1 122130Z 15008G14KT 08/M13 A3017 RMK A01 T00811132  RH  021%=      5-min Rain = 0
KSP1 122135Z 14008KT 08/M13 A3017 RMK A01 T00811132  RH  021%=      5-min Rain = 0
KSP1 122140Z 15009KT 08/M13 A3017 RMK A01 T00821132  RH  021%=      5-min Rain = 0
KSP1 122145Z 15008G15KT 08/M13 A3017 RMK A01 T00821132  RH  021%=      5-min Rain = 0
KSP1 122150Z 14009KT 08/M13 A3017 RMK A01 T00811132  RH  021%=      5-min Rain = 0
KSP1 122155Z 15009G14KT 08/M13 A3016 RMK A01 T00801131  RH  021%=      5-min Rain = 0
KSP1 122200Z 14008G13KT 08/M13 A3016 RMK A01 T00831131  RH  021%=      5-min Rain = 0
KSP1 122205Z 15009G14KT 08/M13 A3016 RMK A01 T00831130  RH  021%=      5-min Rain = 0
KSP1 122210Z 14010KT 08/M13 A3016 RMK A01 T00821130  RH  021%=      5-min Rain = 0
KSP1 122215Z 15010KT 08/M13 A3016 RMK A01 T00811129  RH  021%=      5-min Rain = 0
KSP1 122220Z 14009KT 08/M13 A3016 RMK A01 T00821128  RH  021%=      5-min Rain = 0
KSP1 122225Z 15009G14KT 08/M13 A3016 RMK A01 T00821128  RH  021%=      5-min Rain = 0
KSP1 122230Z 14010KT 08/M13 A3016 RMK A01 T00811128  RH  022%=      5-min Rain = 0
KSP1 122235Z 13009G14KT 08/M13 A3016 RMK A01 T00811128  RH  022%=      5-min Rain = 0
KSP1 122240Z 14009G14KT 08/M13 A3016 RMK A01 T00801126  RH  022%=      5-min Rain = 0
KSP1 122245Z 14008G13KT 08/M13 A3016 RMK A01 T00791126  RH  022%=      5-min Rain = 0
KSP1 122250Z 13009KT 08/M13 A3016 RMK A01 T00781126  RH  022%=      5-min Rain = 0
KSP1 122255Z 13008KT 08/M13 A3016 RMK A01 T00771125  RH  023%=      5-min Rain = 0
KSP1 122300Z 13009KT 08/M13 A3016 RMK A01 T00771125  RH  023%=      5-min Rain = 0
KSP1 122305Z 13007G12KT 08/M12 A3016 RMK A01 T00761124  RH  023%=      5-min Rain = 0
KSP1 122310Z 13007KT 08/M12 A3017 RMK A01 T00761123  RH  023%=      5-min Rain = 0
KSP1 122315Z 13008KT 08/M12 A3017 RMK A01 T00751123  RH  023%=      5-min Rain = 0
KSP1 122320Z 14007KT 07/M12 A3017 RMK A01 T00741123  RH  024%=      5-min Rain = 0
KSP1 122325Z 13007KT 07/M12 A3017 RMK A01 T00721123  RH  024%=      5-min Rain = 0
KSP1 122330Z 12006KT 07/M12 A3017 RMK A01 T00721123  RH  024%=      5-min Rain = 0
KSP1 122335Z 12006KT 07/M12 A3017 RMK A01 T00711123  RH  024%=      5-min Rain = 0
KSP1 122340Z 13006KT 07/M12 A3018 RMK A01 T00701124  RH  024%=      5-min Rain = 0
KSP1 122345Z 12007KT 07/M13 A3018 RMK A01 T00691125  RH  024%=      5-min Rain = 0
KSP1 122350Z 12007KT 07/M13 A3018 RMK A01 T00671125  RH  024%=      5-min Rain = 0
KSP1 122355Z 11007KT 06/M13 A3018 RMK A01 T00641126  RH  025%=      5-min Rain = 0
KSP1 130000Z 11006KT 06/M13 A3019 RMK A01 T00611127  RH  025%=      5-min Rain = 0
KSP1 130005Z 10007KT 06/M13 A3019 RMK A01 T00591129  RH  025%=      5-min Rain = 0
KSP1 130010Z 11006KT 06/M13 A302 RMK A01 T00571130  RH  025%=      5-min Rain = 0
KSP1 130015Z 11006KT 06/M13 A302 RMK A01 T00551131  RH  025%=      5-min Rain = 0
KSP1 130020Z 10007KT 05/M13 A302 RMK A01 T00531131  RH  026%=      5-min Rain = 0
KSP1 130025Z 10007KT 05/M13 A302 RMK A01 T00511131  RH  026%=      5-min Rain = 0
KSP1 130030Z 11007KT 05/M13 A3021 RMK A01 T00491132  RH  026%=      5-min Rain = 0
KSP1 130035Z 11007KT 05/M13 A3021 RMK A01 T00471132  RH  026%=      5-min Rain = 0
KSP1 130040Z 10007KT 04/M13 A3021 RMK A01 T00441132  RH  027%=      5-min Rain = 0
KSP1 130045Z 10008KT 04/M13 A3022 RMK A01 T00421132  RH  027%=      5-min Rain = 0
KSP1 130050Z 09009KT 04/M13 A3022 RMK A01 T00401132  RH  028%=      5-min Rain = 0
KSP1 130055Z 10010KT 04/M13 A3022 RMK A01 T00391131  RH  028%=      5-min Rain = 0
KSP1 130100Z 10010G16KT 04/M13 A3022 RMK A01 T00371130  RH  029%=      5-min Rain = 0
KSP1 130105Z 09009KT 04/M13 A3022 RMK A01 T00351130  RH  029%=      5-min Rain = 0
KSP1 130110Z 10008KT 03/M13 A3023 RMK A01 T00341130  RH  029%=      5-min Rain = 0
KSP1 130115Z 09009KT 03/M13 A3023 RMK A01 T00321130  RH  030%=      5-min Rain = 0
KSP1 130120Z 08007KT 03/M13 A3024 RMK A01 T00291131  RH  030%=      5-min Rain = 0
KSP1 130125Z 09007KT 02/M13 A3024 RMK A01 T00241131  RH  031%=      5-min Rain = 0
KSP1 130130Z 09006KT 02/M13 A3025 RMK A01 T00221131  RH  032%=      5-min Rain = 0
KSP1 130135Z 10006KT 02/M13 A3025 RMK A01 T00191131  RH  032%=      5-min Rain = 0
KSP1 130140Z 09006KT 02/M13 A3025 RMK A01 T00181131  RH  033%=      5-min Rain = 0
KSP1 130145Z 07005KT 02/M13 A3026 RMK A01 T00151132  RH  033%=      5-min Rain = 0
KSP1 130150Z 08005KT 01/M13 A3026 RMK A01 T00111132  RH  034%=      5-min Rain = 0
KSP1 130155Z 07007KT 01/M13 A3026 RMK A01 T00091132  RH  035%=      5-min Rain = 0
KSP1 130200Z 06007KT 01/M13 A3027 RMK A01 T00061131  RH  036%=      5-min Rain = 0
KSP1 130205Z 05009KT 00/M13 A3028 RMK A01 T00031131  RH  037%=      5-min Rain = 0
KSP1 130210Z 06008KT 00/M13 A3028 RMK A01 T00011130  RH  037%=      5-min Rain = 0
KSP1 130215Z 06009KT 00/13 A3029 RMK A01 T00000-131  RH  037%=      5-min Rain = 0
KSP1 130220Z 06008KT 00/13 A3029 RMK A01 T00000-130  RH  037%=      5-min Rain = 0
KSP1 130225Z 06008KT 00/13 A303 RMK A01 T00000-130  RH  037%=      5-min Rain = 0
KSP1 130230Z 06008KT 00/13 A303 RMK A01 T00-00-131  RH  037%=      5-min Rain = 0
KSP1 130235Z 06008KT M00/M13 A303 RMK A01 T10011131  RH  037%=      5-min Rain = 0
KSP1 130240Z 06008KT M00/M13 A3031 RMK A01 T10011131  RH  037%=      5-min Rain = 0
KSP1 130245Z 07008KT M00/M13 A3031 RMK A01 T10021131  RH  038%=      5-min Rain = 0
KSP1 130250Z 07007KT M00/M13 A3031 RMK A01 T10031131  RH  038%=      5-min Rain = 0
KSP1 130255Z 07007KT M00/M13 A3031 RMK A01 T10031132  RH  038%=      5-min Rain = 0
KSP1 130300Z 06007KT M01/M13 A3032 RMK A01 T10051132  RH  038%=      5-min Rain = 0
KSP1 130305Z 06007KT M01/M13 A3032 RMK A01 T10061132  RH  039%=      5-min Rain = 0
KSP1 130310Z 06006KT M01/M13 A3033 RMK A01 T10081132  RH  039%=      5-min Rain = 0
KSP1 130315Z 06006KT M01/M13 A3033 RMK A01 T10091132  RH  040%=      5-min Rain = 0
KSP1 130320Z 05007KT M01/M13 A3034 RMK A01 T10081131  RH  040%=      5-min Rain = 0
KSP1 130325Z 05007KT M01/M13 A3034 RMK A01 T10081130  RH  039%=      5-min Rain = 0
KSP1 130330Z 06006KT M01/M13 A3034 RMK A01 T10061130  RH  039%=      5-min Rain = 0
KSP1 130335Z 05007KT M01/M13 A3035 RMK A01 T10051130  RH  039%=      5-min Rain = 0
KSP1 130340Z 04008KT M00/M13 A3035 RMK A01 T10041131  RH  038%=      5-min Rain = 0
KSP1 130345Z 05009KT M00/M13 A3035 RMK A01 T10041131  RH  038%=      5-min Rain = 0
KSP1 130350Z 05009KT M00/M13 A3035 RMK A01 T10031131  RH  038%=      5-min Rain = 0
KSP1 130355Z 05008KT M00/M13 A3035 RMK A01 T10041131  RH  038%=      5-min Rain = 0
KSP1 130400Z 06008KT M00/M13 A3036 RMK A01 T10041133  RH  038%=      5-min Rain = 0
KSP1 130405Z 06007KT M00/M13 A3036 RMK A01 T10041133  RH  038%=      5-min Rain = 0
KSP1 130410Z 06008KT M00/M13 A3037 RMK A01 T10041134  RH  037%=      5-min Rain = 0
KSP1 130415Z 06008KT M00/M14 A3037 RMK A01 T10041135  RH  037%=      5-min Rain = 0
KSP1 130420Z 06008KT M01/M14 A3037 RMK A01 T10051135  RH  037%=      5-min Rain = 0
KSP1 130425Z 05008KT M01/M14 A3038 RMK A01 T10051136  RH  037%=      5-min Rain = 0
KSP1 130430Z 05007KT M01/M14 A3038 RMK A01 T10051137  RH  037%=      5-min Rain = 0
KSP1 130435Z 05007KT M01/M14 A3039 RMK A01 T10061137  RH  037%=      5-min Rain = 0
KSP1 130440Z 05006KT M01/M14 A3039 RMK A01 T10071138  RH  037%=      5-min Rain = 0
KSP1 130445Z 04007KT M01/M14 A3039 RMK A01 T10081138  RH  037%=      5-min Rain = 0
KSP1 130450Z 05006KT M01/M14 A3039 RMK A01 T10091138  RH  037%=      5-min Rain = 0
KSP1 130455Z 04005KT M01/M14 A304 RMK A01 T10101138  RH  038%=      5-min Rain = 0
KSP1 130500Z 04005KT M01/M14 A304 RMK A01 T10101138  RH  038%=      5-min Rain = 0
KSP1 130505Z 04004KT M01/M14 A304 RMK A01 T10111138  RH  038%=      5-min Rain = 0
KSP1 130510Z 02005KT M01/M14 A3041 RMK A01 T10121138  RH  038%=      5-min Rain = 0
KSP1 130515Z 04004KT M01/M14 A3041 RMK A01 T10131138  RH  039%=      5-min Rain = 0
KSP1 130520Z 04004KT M01/M14 A3041 RMK A01 T10141138  RH  039%=      5-min Rain = 0
KSP1 130525Z 03004KT M01/M14 A3042 RMK A01 T10141138  RH  039%=      5-min Rain = 0
KSP1 130530Z 00003KT M02/M14 A3042 RMK A01 T10151138  RH  039%=      5-min Rain = 0
KSP1 130535Z 03003KT M02/M14 A3042 RMK A01 T10161137  RH  040%=      5-min Rain = 0
KSP1 130540Z 05003KT M02/M14 A3042 RMK A01 T10151137  RH  040%=      5-min Rain = 0
KSP1 130545Z 06002KT M02/M14 A3042 RMK A01 T10151137  RH  040%=      5-min Rain = 0
KSP1 130550Z 06003KT M01/M14 A3042 RMK A01 T10141137  RH  039%=      5-min Rain = 0
KSP1 130555Z 07003KT M01/M14 A3042 RMK A01 T10141137  RH  039%=      5-min Rain = 0
KSP1 130600Z 06004KT M01/M14 A3042 RMK A01 T10131137  RH  039%=      5-min Rain = 0

Page generated in 0.0141 seconds.